Decoded Metar for UDSG (SHIRAK in ARMENIA) (IATA:N/A) | Meteo·Mobile Aviation Weather
aviador You're here:

UDSG Decoded Metar

SHIRAK in ARMENIA
Report Time2019-01-16 18:00:00
UTC Time2019-01-16 18:33:03
Flight Rules vfr VFR
Wind080° at 04 kt
W.Decomp.*RWY 02: 2.2 kt HW 3.3 kt RCW
W.Rank080° ranks 4
Current wind is below 080° avg. (7.9)
Visibility9000 m
Phenomena:N/A
Clouds:Scattered 049 Hf
Expected CloudBase > 1,200 ft AGL from Temp-Dew spread
CeilingNone
Temp-3°C (ISA -8)
Dew Point-6°C (80% RH)
AAT-7.1°C
QNH1004 hPa
Density Alt4,396 ft
Elevation5,000 ft
Report Wrong Elevation
Raw Report
METAR UDSG 161800Z 08004KT 020V150 9000 SCT049 M03/M06 Q1004
R02/CLRD70 NOSIG=

Extra information for UDSG:More info

Metar Taf Metar & Taf Last 4 Metars F.Rules Stats Wind Profile Meteogram Temp Stats Airport Information Weather charts Add Link Nearby VenuesMetar ALERT Operation Metar Decoded Social comments